Terminal Aerodrome Forecast
Issued by NWS

Home | Current Version | Previous Version | Text Only | Print | Product List | Glossary On
Versions: 1 2 3 4 5 6 7 8 9 10 11 12 13 14 15 16
000
FTPA31 PHFO 230100 AAA
TAFHJH
TAF AMD
PHJH 230100Z 2301/2324 07015G22KT P6SM VCSH SCT030 SCT050
     FM230500 05014KT P6SM SCT025 SCT050
     FM232000 05018G26KT P6SM SCT030 SCT050
      AMD NOT SKED AFT 230400=

USA.gov is the U.S. government's official web portal to all federal, state and local government web resources and services.